createdAt,value
2023-02-09T00:01:24.498Z,8.95
2023-02-09T00:03:53.187Z,8.60
2023-02-09T00:06:24.706Z,9.48
2023-02-09T00:08:52.547Z,10.55
2023-02-09T00:11:22.480Z,8.95
2023-02-09T00:13:49.378Z,8.90
2023-02-09T00:16:17.177Z,9.50
2023-02-09T00:18:44.978Z,9.35
2023-02-09T00:21:12.776Z,8.63
2023-02-09T00:23:42.357Z,8.45
2023-02-09T00:26:12.446Z,9.63
2023-02-09T00:28:43.871Z,10.57
2023-02-09T00:31:14.037Z,9.35
2023-02-09T00:33:42.240Z,8.63
2023-02-09T00:36:12.871Z,11.13
2023-02-09T00:38:44.140Z,9.48
2023-02-09T00:41:12.872Z,9.95
2023-02-09T00:43:41.377Z,7.95
2023-02-09T00:46:10.125Z,8.00
2023-02-09T00:48:37.982Z,9.20
2023-02-09T00:51:06.186Z,10.15
2023-02-09T00:53:36.217Z,9.10
2023-02-09T00:56:05.933Z,10.98
2023-02-09T00:58:33.744Z,10.30
2023-02-09T01:01:01.545Z,9.93
2023-02-09T01:03:29.600Z,10.55
2023-02-09T01:05:59.659Z,9.80
2023-02-09T01:08:28.895Z,10.10
2023-02-09T01:10:56.760Z,8.68
2023-02-09T01:13:26.269Z,8.80
2023-02-09T01:15:54.045Z,9.43
2023-02-09T01:18:21.862Z,7.97
2023-02-09T01:20:49.678Z,8.82
2023-02-09T01:23:17.478Z,10.38
2023-02-09T01:25:45.879Z,8.48
2023-02-09T01:28:13.807Z,8.52
2023-02-09T01:30:43.200Z,9.90
2023-02-09T01:33:11.227Z,9.90
2023-02-09T01:35:39.049Z,9.00
2023-02-09T01:38:06.828Z,9.57
2023-02-09T01:40:34.956Z,9.23
2023-02-09T01:43:02.854Z,9.43
2023-02-09T01:45:37.049Z,10.15
2023-02-09T01:48:06.464Z,11.15
2023-02-09T01:50:39.368Z,8.90
2023-02-09T01:53:08.870Z,8.98
2023-02-09T01:55:41.742Z,10.15
2023-02-09T01:58:13.117Z,10.25
2023-02-09T02:00:41.544Z,9.77
2023-02-09T02:03:16.482Z,11.43
2023-02-09T02:05:51.824Z,10.85
2023-02-09T02:08:27.493Z,12.63
2023-02-09T02:10:56.142Z,10.43
2023-02-09T02:13:24.020Z,9.90
2023-02-09T02:16:00.235Z,12.20
2023-02-09T02:18:43.494Z,8.77
2023-02-09T02:21:50.187Z,10.85
2023-02-09T02:24:40.449Z,9.80
2023-02-09T02:27:16.276Z,10.73
2023-02-09T02:30:24.030Z,10.00
2023-02-09T02:33:05.808Z,10.65
2023-02-09T02:35:38.006Z,9.70
2023-02-09T02:38:17.229Z,12.50
2023-02-09T02:40:55.747Z,10.18
2023-02-09T02:43:37.140Z,11.20
2023-02-09T02:46:09.834Z,10.73
2023-02-09T02:48:43.439Z,11.55
2023-02-09T02:51:15.848Z,10.98
2023-02-09T02:53:49.479Z,10.70
2023-02-09T02:56:22.106Z,12.23
2023-02-09T02:58:54.012Z,10.52
2023-02-09T03:01:25.872Z,11.60
2023-02-09T03:03:55.829Z,11.23
2023-02-09T03:06:23.726Z,11.40
2023-02-09T03:08:54.067Z,10.38
2023-02-09T03:11:24.983Z,10.52
2023-02-09T03:14:06.923Z,10.93
2023-02-09T03:16:42.298Z,9.60
2023-02-09T03:19:24.499Z,10.68
2023-02-09T03:21:56.850Z,10.88
2023-02-09T03:24:33.983Z,11.65
2023-02-09T03:27:07.758Z,11.45
2023-02-09T03:29:38.658Z,12.27
2023-02-09T03:32:07.843Z,10.98
2023-02-09T03:34:37.349Z,12.65
2023-02-09T03:37:05.641Z,11.90
2023-02-09T03:39:33.430Z,12.93
2023-02-09T03:42:01.322Z,13.52
2023-02-09T03:44:29.112Z,11.57
2023-02-09T03:46:58.981Z,12.55
2023-02-09T03:49:28.076Z,11.25
2023-02-09T03:51:57.208Z,11.23
2023-02-09T03:54:25.221Z,11.63
2023-02-09T03:56:52.979Z,12.18
2023-02-09T03:59:21.480Z,12.20
2023-02-09T04:01:49.405Z,13.60
2023-02-09T04:04:17.172Z,10.95
2023-02-09T04:06:45.100Z,10.65
2023-02-09T04:09:15.109Z,13.27
2023-02-09T04:11:42.925Z,11.25
2023-02-09T04:14:10.938Z,11.55
2023-02-09T04:16:39.099Z,11.75
2023-02-09T04:19:09.141Z,11.18
2023-02-09T04:21:37.779Z,13.35
2023-02-09T04:24:07.377Z,12.02
2023-02-09T04:26:37.173Z,11.45
2023-02-09T04:29:05.066Z,13.25
2023-02-09T04:31:33.040Z,12.95
2023-02-09T04:34:00.874Z,12.32
2023-02-09T04:36:28.663Z,11.15
2023-02-09T04:38:56.480Z,11.60
2023-02-09T04:41:24.249Z,10.07
2023-02-09T04:43:53.408Z,11.75
2023-02-09T04:46:21.485Z,11.38
2023-02-09T04:48:49.441Z,13.13
2023-02-09T04:51:17.521Z,13.00
2023-02-09T04:53:45.428Z,15.27
2023-02-09T04:56:15.927Z,12.63
2023-02-09T04:59:03.673Z,13.25
2023-02-09T05:01:33.233Z,12.18
2023-02-09T05:04:01.150Z,14.70
2023-02-09T05:06:29.071Z,12.57
2023-02-09T05:08:56.838Z,11.63
2023-02-09T05:11:25.658Z,13.02
2023-02-09T05:13:53.549Z,13.32
2023-02-09T05:16:21.461Z,12.23
2023-02-09T05:18:51.319Z,13.07
2023-02-09T05:21:19.472Z,12.85
2023-02-09T05:23:47.274Z,12.38
2023-02-09T05:26:15.046Z,16.08
2023-02-09T05:28:42.911Z,11.77
2023-02-09T05:31:10.887Z,13.18
2023-02-09T05:33:38.726Z,12.52
2023-02-09T05:36:09.864Z,13.43
2023-02-09T05:38:37.825Z,12.15
2023-02-09T05:41:07.164Z,12.65
2023-02-09T05:43:35.402Z,12.23
2023-02-09T05:46:05.188Z,13.45
2023-02-09T05:48:34.271Z,11.10
2023-02-09T05:51:02.165Z,13.88
2023-02-09T05:53:31.349Z,13.38
2023-02-09T05:55:59.222Z,12.95
2023-02-09T05:58:27.048Z,12.98
2023-02-09T06:00:54.868Z,14.27
2023-02-09T06:03:22.723Z,13.00
2023-02-09T06:05:50.561Z,13.57
2023-02-09T06:08:18.387Z,13.15
2023-02-09T06:10:47.942Z,14.18
2023-02-09T06:13:15.977Z,16.25
2023-02-09T06:15:43.798Z,14.48
2023-02-09T06:18:11.646Z,14.18
2023-02-09T06:20:39.514Z,16.67
2023-02-09T06:23:07.365Z,13.98
2023-02-09T06:25:35.113Z,15.23
2023-02-09T06:28:04.574Z,14.38
2023-02-09T06:30:33.012Z,13.05
2023-02-09T06:33:00.935Z,14.57
2023-02-09T06:35:28.877Z,16.13
2023-02-09T06:37:57.965Z,12.95
2023-02-09T06:40:26.021Z,14.18
2023-02-09T06:42:53.780Z,14.02
2023-02-09T06:45:22.897Z,15.43
2023-02-09T06:47:50.731Z,15.13
2023-02-09T06:50:19.206Z,14.50
2023-02-09T06:52:47.723Z,14.02
2023-02-09T06:55:15.976Z,15.43
2023-02-09T06:57:43.931Z,13.32
2023-02-09T07:00:14.011Z,13.60
2023-02-09T07:02:44.118Z,14.60
2023-02-09T07:05:12.527Z,13.07
2023-02-09T07:07:40.640Z,16.90
2023-02-09T07:10:09.969Z,16.88
2023-02-09T07:12:40.336Z,14.23
2023-02-09T07:15:09.160Z,13.45
2023-02-09T07:17:37.138Z,14.10
2023-02-09T07:20:07.416Z,14.55
2023-02-09T07:22:35.291Z,15.18
2023-02-09T07:25:03.242Z,15.25
2023-02-09T07:27:31.047Z,14.55
2023-02-09T07:30:00.825Z,19.30
2023-02-09T07:32:29.148Z,16.10
2023-02-09T07:34:56.948Z,16.17
2023-02-09T07:37:26.143Z,16.58
2023-02-09T07:39:53.944Z,17.10
2023-02-09T07:42:23.349Z,15.07
2023-02-09T07:44:57.737Z,15.60
2023-02-09T07:47:25.575Z,17.02
2023-02-09T07:49:53.384Z,17.77
2023-02-09T07:52:21.265Z,15.75
2023-02-09T07:54:51.871Z,14.15
2023-02-09T07:57:19.718Z,16.33
2023-02-09T07:59:47.542Z,14.65
2023-02-09T08:02:22.019Z,15.82
2023-02-09T08:04:50.888Z,17.63
2023-02-09T08:07:18.658Z,15.15
2023-02-09T08:09:47.060Z,16.05
2023-02-09T08:12:16.732Z,14.90
2023-02-09T08:14:48.345Z,18.17
2023-02-09T08:17:24.279Z,16.63
2023-02-09T08:19:55.846Z,15.50
2023-02-09T08:22:26.257Z,16.00
2023-02-09T08:24:54.517Z,17.85
2023-02-09T08:27:23.827Z,16.42
2023-02-09T08:29:51.915Z,17.55
2023-02-09T08:32:19.720Z,15.40
2023-02-09T08:34:47.655Z,15.57
2023-02-09T08:37:15.595Z,14.43
2023-02-09T08:39:43.424Z,15.07
2023-02-09T08:42:11.195Z,15.80
2023-02-09T08:44:40.410Z,18.10
2023-02-09T08:47:08.328Z,17.80
2023-02-09T08:49:36.902Z,16.42
2023-02-09T08:52:04.979Z,17.02
2023-02-09T08:54:32.807Z,16.05
2023-02-09T08:57:00.567Z,14.95
2023-02-09T08:59:28.645Z,15.82
2023-02-09T09:01:57.805Z,17.08
2023-02-09T09:04:25.787Z,16.77
2023-02-09T09:06:54.962Z,14.50
2023-02-09T09:09:22.833Z,17.70
2023-02-09T09:11:50.638Z,19.25
2023-02-09T09:14:18.600Z,18.65
2023-02-09T09:16:46.496Z,18.00
2023-02-09T09:19:16.069Z,16.60
2023-02-09T09:21:44.010Z,16.95
2023-02-09T09:24:11.856Z,15.95
2023-02-09T09:26:39.664Z,17.83
2023-02-09T09:29:07.566Z,16.25
2023-02-09T09:31:35.458Z,15.73
2023-02-09T09:34:03.338Z,15.73
2023-02-09T09:36:32.581Z,15.77
2023-02-09T09:39:00.430Z,16.80
2023-02-09T09:41:32.785Z,18.83
2023-02-09T09:44:02.154Z,18.70
2023-02-09T09:46:36.515Z,15.40
2023-02-09T09:49:05.590Z,15.43
2023-02-09T09:51:42.947Z,17.23
2023-02-09T09:54:17.428Z,17.33
2023-02-09T09:56:45.604Z,17.23
2023-02-09T09:59:17.677Z,15.70
2023-02-09T10:01:45.929Z,16.93
2023-02-09T10:04:17.137Z,17.60
2023-02-09T10:06:57.342Z,16.42
2023-02-09T10:09:34.292Z,16.95
2023-02-09T10:12:16.030Z,18.25
2023-02-09T10:14:44.079Z,15.93
2023-02-09T10:17:11.984Z,19.15
2023-02-09T10:19:39.893Z,16.70
2023-02-09T10:22:13.496Z,18.20
2023-02-09T10:24:41.996Z,20.70
2023-02-09T10:27:15.717Z,19.35
2023-02-09T10:29:43.668Z,24.92
2023-02-09T10:32:17.691Z,20.65
2023-02-09T10:34:48.777Z,17.58
2023-02-09T10:37:23.777Z,17.83
2023-02-09T10:40:01.013Z,20.83
2023-02-09T10:42:32.162Z,16.92
2023-02-09T10:45:08.533Z,16.27
2023-02-09T10:47:36.445Z,15.90
2023-02-09T10:50:17.113Z,14.50
2023-02-09T10:52:57.797Z,15.80
2023-02-09T10:55:29.193Z,15.93
2023-02-09T10:58:13.411Z,15.10
2023-02-09T11:00:50.172Z,15.48
2023-02-09T11:03:20.261Z,15.20
2023-02-09T11:05:56.795Z,15.70
2023-02-09T11:08:44.352Z,13.52
2023-02-09T11:11:30.516Z,16.40
2023-02-09T11:13:58.754Z,15.15
2023-02-09T11:16:59.037Z,14.35
2023-02-09T11:19:45.213Z,16.45
2023-02-09T11:22:15.484Z,13.45
2023-02-09T11:24:55.077Z,15.05
2023-02-09T11:27:36.142Z,13.73
2023-02-09T11:30:16.305Z,15.88
2023-02-09T11:32:51.557Z,14.38
2023-02-09T11:35:20.894Z,13.93
2023-02-09T11:37:56.254Z,15.95
2023-02-09T11:40:32.494Z,14.48
2023-02-09T11:43:12.585Z,14.85
2023-02-09T11:45:45.903Z,13.40
2023-02-09T11:48:18.302Z,14.07
2023-02-09T11:50:56.966Z,16.33
2023-02-09T11:53:32.349Z,13.98
2023-02-09T11:56:04.959Z,14.90
2023-02-09T11:58:43.830Z,14.38
2023-02-09T12:01:27.632Z,13.60
2023-02-09T12:04:02.530Z,14.88
2023-02-09T12:06:36.824Z,14.10
2023-02-09T12:09:17.492Z,15.00
2023-02-09T12:11:58.602Z,14.70
2023-02-09T12:14:46.304Z,13.57
2023-02-09T12:17:18.649Z,15.27
2023-02-09T12:19:54.924Z,13.35
2023-02-09T12:22:49.078Z,13.48
2023-02-09T12:25:23.494Z,12.75
2023-02-09T12:28:34.321Z,15.13
2023-02-09T12:31:07.592Z,11.82
2023-02-09T12:33:38.574Z,13.43
2023-02-09T12:36:26.713Z,14.85
2023-02-09T12:39:23.775Z,13.82
2023-02-09T12:42:28.025Z,13.70
2023-02-09T12:45:00.580Z,12.80
2023-02-09T12:47:44.763Z,12.75
2023-02-09T12:50:24.556Z,12.00
2023-02-09T12:53:37.038Z,13.13
2023-02-09T12:56:26.760Z,12.32
2023-02-09T12:58:57.817Z,13.43
2023-02-09T13:02:20.595Z,14.48
2023-02-09T13:05:00.894Z,12.13
2023-02-09T13:07:46.882Z,10.63
2023-02-09T13:10:24.530Z,11.05
2023-02-09T13:12:58.094Z,12.32
2023-02-09T13:15:30.299Z,11.02
2023-02-09T13:18:05.790Z,11.30
2023-02-09T13:20:58.138Z,9.77
2023-02-09T13:23:34.730Z,11.05
2023-02-09T13:26:15.668Z,11.18
2023-02-09T13:28:43.542Z,12.30
2023-02-09T13:31:27.059Z,11.57
2023-02-09T13:34:00.184Z,11.82
2023-02-09T13:39:08.488Z,12.02
2023-02-09T13:41:38.300Z,12.50
2023-02-09T13:44:20.627Z,12.82
2023-02-09T13:46:53.278Z,12.33
2023-02-09T13:49:22.871Z,11.90
2023-02-09T13:52:17.962Z,11.65
2023-02-09T13:54:45.882Z,13.02
2023-02-09T13:57:32.637Z,13.27
2023-02-09T14:00:10.220Z,11.15
2023-02-09T14:02:51.012Z,10.10
2023-02-09T14:05:29.530Z,10.70
2023-02-09T14:07:59.323Z,12.43
2023-02-09T14:10:28.269Z,11.20
2023-02-09T14:13:01.395Z,11.55
2023-02-09T14:15:53.668Z,12.32
2023-02-09T14:18:30.776Z,10.25
2023-02-09T14:21:03.425Z,11.25
2023-02-09T14:23:35.432Z,12.43
2023-02-09T14:26:05.680Z,11.70
2023-02-09T14:28:34.038Z,12.25
2023-02-09T14:31:02.002Z,11.63
2023-02-09T14:33:31.302Z,11.57
2023-02-09T14:36:01.911Z,10.20
2023-02-09T14:38:39.761Z,11.25
2023-02-09T14:41:28.107Z,10.13
2023-02-09T14:44:04.811Z,9.13
2023-02-09T14:46:49.156Z,10.10
2023-02-09T14:49:17.446Z,10.85
2023-02-09T14:51:45.853Z,10.40
2023-02-09T14:54:23.654Z,10.25
2023-02-09T14:56:51.870Z,11.95
2023-02-09T14:59:21.194Z,11.35
2023-02-09T15:01:51.236Z,11.93
2023-02-09T15:04:19.217Z,12.85
2023-02-09T15:06:49.453Z,10.35
2023-02-09T15:09:23.620Z,10.23
2023-02-09T15:12:06.361Z,10.48
2023-02-09T15:14:39.314Z,10.38
2023-02-09T15:17:18.837Z,9.48
2023-02-09T15:19:47.731Z,10.55
2023-02-09T15:22:17.001Z,9.45
2023-02-09T15:24:47.954Z,10.30
2023-02-09T15:27:24.170Z,10.88
2023-02-09T15:29:52.113Z,10.13
2023-02-09T15:32:22.007Z,10.60
2023-02-09T15:34:51.708Z,11.77
2023-02-09T15:37:22.886Z,9.50
2023-02-09T15:39:55.865Z,10.30
2023-02-09T15:42:41.162Z,10.05
2023-02-09T15:45:37.659Z,10.40
2023-02-09T15:48:05.989Z,9.52
2023-02-09T15:50:36.158Z,10.30
2023-02-09T15:53:09.715Z,9.23
2023-02-09T15:55:40.513Z,10.73
2023-02-09T15:58:13.936Z,10.18
2023-02-09T16:00:41.954Z,10.13
2023-02-09T16:03:16.270Z,11.82
2023-02-09T16:05:44.507Z,10.02
2023-02-09T16:08:19.009Z,9.38
2023-02-09T16:10:49.525Z,12.10
2023-02-09T16:13:19.542Z,10.25
2023-02-09T16:15:47.973Z,11.18
2023-02-09T16:18:16.139Z,9.93
2023-02-09T16:20:47.170Z,11.50
2023-02-09T16:23:20.955Z,11.48
2023-02-09T16:25:51.843Z,12.18
2023-02-09T16:28:20.949Z,10.45
2023-02-09T16:30:52.289Z,10.95
2023-02-09T16:33:20.262Z,12.43
2023-02-09T16:35:54.197Z,10.45
2023-02-09T16:38:23.587Z,13.23
2023-02-09T16:40:54.024Z,10.77
2023-02-09T16:43:22.756Z,11.45
2023-02-09T16:46:02.840Z,12.65
2023-02-09T16:48:34.448Z,9.57
2023-02-09T16:51:02.564Z,10.75
2023-02-09T16:53:33.847Z,11.27
2023-02-09T16:56:06.345Z,14.15
2023-02-09T16:58:34.168Z,11.48
2023-02-09T17:01:02.104Z,11.93
2023-02-09T17:03:34.953Z,11.30
2023-02-09T17:06:03.409Z,11.75
2023-02-09T17:08:33.105Z,12.65
2023-02-09T17:11:03.580Z,12.75
2023-02-09T17:13:32.073Z,12.80
2023-02-09T17:16:01.864Z,14.13
2023-02-09T17:18:32.565Z,12.55
2023-02-09T17:21:02.960Z,12.88
2023-02-09T17:23:32.408Z,15.05
2023-02-09T17:26:00.478Z,13.93
2023-02-09T17:28:30.529Z,12.05
2023-02-09T17:31:00.632Z,12.90
2023-02-09T17:33:31.898Z,13.23
2023-02-09T17:38:48.932Z,15.98
2023-02-09T17:41:20.011Z,15.73
2023-02-09T17:43:50.554Z,16.17
2023-02-09T17:46:19.866Z,15.73
2023-02-09T17:48:47.842Z,21.95
2023-02-09T17:51:20.807Z,20.95
2023-02-09T17:53:48.988Z,20.63
2023-02-09T17:56:17.002Z,19.45
2023-02-09T17:58:45.394Z,19.95
2023-02-09T18:01:26.087Z,20.67
2023-02-09T18:03:54.817Z,20.00
2023-02-09T18:06:28.279Z,18.13
2023-02-09T18:08:56.038Z,16.33
2023-02-09T18:11:40.473Z,16.80
2023-02-09T18:14:09.865Z,14.52
2023-02-09T18:16:39.178Z,15.52
2023-02-09T18:19:07.011Z,16.80
2023-02-09T18:21:35.274Z,15.13
2023-02-09T18:24:03.581Z,14.50
2023-02-09T18:26:31.477Z,17.65
2023-02-09T18:28:59.284Z,17.77
2023-02-09T18:31:27.033Z,21.15
2023-02-09T18:33:56.294Z,22.90
2023-02-09T18:36:24.067Z,20.73
2023-02-09T18:38:53.441Z,20.38
2023-02-09T18:41:21.326Z,19.58
2023-02-09T18:43:49.771Z,18.83
2023-02-09T18:46:19.540Z,18.60
2023-02-09T18:48:47.977Z,17.38
2023-02-09T18:51:17.435Z,16.08
2023-02-09T18:53:45.357Z,15.50
2023-02-09T18:56:18.822Z,15.73
2023-02-09T18:58:47.059Z,17.63
2023-02-09T19:01:14.912Z,17.98
2023-02-09T19:03:42.796Z,15.93
2023-02-09T19:06:12.126Z,17.10
2023-02-09T19:08:41.495Z,18.25
2023-02-09T19:11:14.306Z,20.02
2023-02-09T19:13:42.341Z,18.15
2023-02-09T19:16:12.790Z,18.60
2023-02-09T19:18:40.696Z,19.02
2023-02-09T19:21:08.676Z,17.10
2023-02-09T19:23:36.524Z,18.95
2023-02-09T19:26:09.244Z,19.23
2023-02-09T19:28:37.192Z,17.80
2023-02-09T19:31:05.154Z,15.90
2023-02-09T19:33:33.160Z,16.70
2023-02-09T19:36:01.383Z,15.93
2023-02-09T19:38:29.346Z,16.52
2023-02-09T19:41:09.845Z,18.15
2023-02-09T19:43:40.039Z,16.67
2023-02-09T19:46:10.023Z,16.85
2023-02-09T19:48:40.030Z,17.00
2023-02-09T19:51:09.302Z,17.35
2023-02-09T19:53:37.436Z,17.15
2023-02-09T19:56:05.705Z,18.48
2023-02-09T19:58:33.819Z,19.13
2023-02-09T20:01:02.980Z,17.00
2023-02-09T20:03:31.062Z,17.58
2023-02-09T20:05:58.890Z,16.98
2023-02-09T20:08:26.716Z,17.60
2023-02-09T20:10:54.532Z,20.90
2023-02-09T20:15:56.003Z,19.45
2023-02-09T20:18:25.254Z,18.13
2023-02-09T20:20:53.219Z,18.92
2023-02-09T20:23:21.033Z,20.05
2023-02-09T20:25:48.843Z,19.27
2023-02-09T20:28:17.149Z,18.63
2023-02-09T20:30:47.505Z,17.58
2023-02-09T20:33:16.232Z,20.60
2023-02-09T20:35:46.691Z,21.48
2023-02-09T20:38:14.565Z,20.65
2023-02-09T20:40:43.009Z,17.60
2023-02-09T20:43:29.758Z,22.00
2023-02-09T20:46:15.166Z,18.38
2023-02-09T20:48:46.057Z,19.15
2023-02-09T20:51:23.674Z,18.17
2023-02-09T20:54:00.272Z,20.08
2023-02-09T20:56:33.180Z,19.20
2023-02-09T20:59:01.463Z,19.77
2023-02-09T21:01:29.990Z,20.50
2023-02-09T21:04:01.192Z,20.42
2023-02-09T21:06:30.704Z,22.10
2023-02-09T21:08:58.799Z,22.17
2023-02-09T21:11:32.546Z,20.48
2023-02-09T21:14:01.972Z,23.10
2023-02-09T21:16:30.907Z,21.63
2023-02-09T21:18:59.698Z,22.25
2023-02-09T21:21:45.013Z,21.20
2023-02-09T21:24:13.049Z,19.40
2023-02-09T21:26:42.751Z,20.00
2023-02-09T21:29:11.777Z,19.63
2023-02-09T21:31:40.501Z,20.60
2023-02-09T21:34:09.055Z,19.55
2023-02-09T21:40:07.169Z,18.48
2023-02-09T21:42:39.372Z,21.52
2023-02-09T21:45:10.179Z,20.85
2023-02-09T21:47:40.614Z,22.60
2023-02-09T21:50:12.279Z,22.05
2023-02-09T21:52:43.668Z,23.17
2023-02-09T21:55:13.014Z,20.45
2023-02-09T21:57:41.091Z,20.00
2023-02-09T22:00:12.948Z,24.58
2023-02-09T22:02:41.309Z,24.35
2023-02-09T22:05:12.124Z,24.50
2023-02-09T22:07:46.736Z,26.15
2023-02-09T22:10:19.070Z,29.40
2023-02-09T22:12:51.993Z,26.27
2023-02-09T22:15:19.957Z,26.23
2023-02-09T22:17:48.373Z,25.55
2023-02-09T22:20:16.684Z,26.20
2023-02-09T22:22:46.110Z,24.02
2023-02-09T22:25:13.986Z,27.13
2023-02-09T22:27:42.106Z,27.73
2023-02-09T22:30:12.232Z,26.70
2023-02-09T22:32:40.302Z,23.52
2023-02-09T22:35:09.030Z,25.92
2023-02-09T22:37:36.888Z,24.75
2023-02-09T22:40:06.815Z,23.58
2023-02-09T22:42:34.751Z,24.77
2023-02-09T22:45:02.759Z,23.08
2023-02-09T22:47:30.647Z,24.10
2023-02-09T22:49:58.521Z,23.58
2023-02-09T22:52:26.389Z,23.52
2023-02-09T22:54:54.354Z,24.48
2023-02-09T22:57:23.693Z,24.33
2023-02-09T22:59:51.680Z,22.23
2023-02-09T23:02:19.585Z,23.63
2023-02-09T23:04:47.419Z,23.58
2023-02-09T23:07:15.245Z,24.35
2023-02-09T23:09:43.236Z,25.17
2023-02-09T23:12:11.133Z,26.08
2023-02-09T23:14:40.335Z,23.83
2023-02-09T23:17:08.276Z,25.27
2023-02-09T23:19:36.154Z,24.83
2023-02-09T23:22:04.251Z,23.27
2023-02-09T23:24:32.083Z,23.95
2023-02-09T23:27:00.180Z,20.73
2023-02-09T23:29:28.249Z,20.98
2023-02-09T23:31:58.194Z,19.65
2023-02-09T23:34:25.992Z,23.65
2023-02-09T23:36:53.832Z,23.92
2023-02-09T23:39:26.024Z,22.67
2023-02-09T23:41:54.048Z,20.75
2023-02-09T23:44:21.838Z,23.75
2023-02-09T23:46:50.010Z,22.02
2023-02-09T23:49:19.253Z,22.13
2023-02-09T23:51:47.575Z,22.92
2023-02-09T23:54:15.433Z,22.13
2023-02-09T23:56:45.540Z,24.90
2023-02-09T23:59:16.277Z,21.30
